Time;durP1;ratioP1;P1;durP2;ratioP2;P2;SDS_P1;SDS_P2;PMS_P1;PMS_P2;Temp;Humidity;BMP_temperature;BMP_pressure;BME280_temperature;BME280_humidity;BME280_pressure;Samples;Min_cycle;Max_cycle;Signal;HPM_P1;HPM_P2
2021/03/11 00:00:01;;;;;;;13.25;10.95;;;11.40;56.30;11.40;99620.00;;;;346412;28;97026;-87
2021/03/11 00:00:13;;;;;;;13.25;10.68;;;11.40;56.40;11.50;99618.00;;;;346079;28;92002;-87
2021/03/11 00:00:25;;;;;;;12.90;10.52;;;11.40;56.30;11.60;99620.00;;;;345187;28;95306;-87
2021/03/11 00:00:36;;;;;;;13.15;11.18;;;11.30;56.20;11.50;99619.00;;;;344770;28;92030;-90
2021/03/11 00:00:49;;;;;;;13.52;11.35;;;11.40;56.10;11.50;99623.00;;;;344998;28;97042;-86
2021/03/11 00:01:01;;;;;;;14.73;11.15;;;11.40;56.40;11.40;99622.00;;;;343660;28;91326;-86
2021/03/11 00:01:14;;;;;;;14.15;11.55;;;11.30;56.30;11.50;99624.00;;;;346575;28;95892;-87
2021/03/11 00:01:25;;;;;;;13.94;11.22;;;11.30;56.50;11.60;99615.00;;;;345087;28;92306;-87
2021/03/11 00:01:37;;;;;;;12.35;10.73;;;11.30;56.40;11.70;99622.00;;;;345090;28;97270;-91
2021/03/11 00:01:50;;;;;;;13.05;10.63;;;11.40;56.40;11.60;99627.00;;;;343830;28;91983;-87
2021/03/11 00:02:02;;;;;;;14.50;10.80;;;11.40;56.30;11.70;99628.00;;;;346570;28;97633;-86
2021/03/11 00:02:13;;;;;;;13.88;10.75;;;11.40;56.30;11.80;99618.00;;;;346533;28;92011;-87
2021/03/11 00:02:25;;;;;;;13.10;10.77;;;11.40;56.20;11.80;99624.00;;;;343901;28;96493;-86
2021/03/11 00:02:36;;;;;;;12.50;10.13;;;11.40;56.20;11.70;99620.00;;;;345094;28;92025;-89
2021/03/11 00:02:49;;;;;;;13.75;10.98;;;11.40;56.20;11.70;99624.00;;;;345396;28;94659;-87
2021/03/11 00:03:00;;;;;;;13.38;10.80;;;11.40;56.20;11.50;99616.00;;;;345193;28;91215;-87
2021/03/11 00:03:17;;;;;;;14.77;10.90;;;11.40;56.10;11.60;99618.00;;;;343821;28;95817;-88
2021/03/11 00:03:29;;;;;;;14.20;10.57;;;11.40;56.00;11.80;99618.00;;;;343564;28;91992;-87
2021/03/11 00:03:40;;;;;;;12.63;10.20;;;11.40;56.10;11.70;99620.00;;;;343783;28;96790;-87
2021/03/11 00:03:51;;;;;;;13.32;10.07;;;11.40;56.30;11.70;99619.00;;;;345031;28;92533;-87
2021/03/11 00:04:03;;;;;;;12.88;10.07;;;11.40;56.20;11.80;99615.00;;;;343784;28;94354;-88
2021/03/11 00:04:14;;;;;;;12.85;10.05;;;11.40;56.10;11.70;99620.00;;;;343789;28;91970;-87
2021/03/11 00:04:26;;;;;;;11.23;10.02;;;11.40;56.10;11.70;99621.00;;;;346720;28;96643;-86
2021/03/11 00:04:37;;;;;;;11.45;9.68;;;11.40;56.00;11.60;99620.00;;;;343763;28;91182;-87
2021/03/11 00:04:49;;;;;;;11.90;9.90;;;11.40;56.00;11.60;99629.00;;;;343913;28;95700;-87
2021/03/11 00:05:00;;;;;;;11.25;9.85;;;11.40;56.10;11.60;99632.00;;;;342371;28;91331;-88
2021/03/11 00:05:13;;;;;;;12.18;10.40;;;11.40;56.10;11.60;99616.00;;;;344150;28;93089;-87
2021/03/11 00:05:24;;;;;;;11.95;9.85;;;11.40;56.10;11.50;99620.00;;;;341004;28;92158;-87
2021/03/11 00:05:38;;;;;;;14.43;10.55;;;11.40;56.00;11.60;99618.00;;;;346497;28;95839;-87
2021/03/11 00:05:50;;;;;;;14.38;10.25;;;11.40;55.90;11.70;99623.00;;;;344649;28;92390;-87
2021/03/11 00:06:01;;;;;;;12.82;10.45;;;11.40;55.90;11.70;99620.00;;;;345028;28;96593;-87
2021/03/11 00:06:12;;;;;;;11.75;10.25;;;11.40;55.90;11.70;99621.00;;;;344979;28;92312;-87
2021/03/11 00:06:24;;;;;;;12.93;10.50;;;11.40;55.90;11.50;99623.00;;;;343971;28;93964;-86
2021/03/11 00:06:35;;;;;;;13.10;10.60;;;11.40;56.10;11.70;99619.00;;;;343729;28;92003;-87
2021/03/11 00:06:46;;;;;;;12.40;10.55;;;11.40;56.10;11.80;99617.00;;;;345080;28;96634;-87
2021/03/11 00:06:58;;;;;;;12.07;10.48;;;11.40;56.00;11.70;99613.00;;;;343865;28;91270;-86
2021/03/11 00:07:09;;;;;;;12.65;10.30;;;11.40;55.90;11.70;99627.00;;;;342482;28;96029;-87
2021/03/11 00:07:21;;;;;;;13.02;10.68;;;11.40;55.90;11.70;99623.00;;;;343477;28;92158;-87
2021/03/11 00:07:32;;;;;;;12.32;10.18;;;11.40;56.20;11.60;99620.00;;;;339803;28;96836;-87
2021/03/11 00:07:43;;;;;;;12.07;10.35;;;11.40;56.20;11.60;99620.00;;;;347983;27;92064;-87
2021/03/11 00:07:55;;;;;;;11.95;10.45;;;11.40;56.20;11.50;99622.00;;;;342459;28;97087;-87
2021/03/11 00:08:06;;;;;;;12.75;10.23;;;11.40;56.10;11.70;99625.00;;;;342378;28;91992;-86
2021/03/11 00:08:18;;;;;;;13.15;10.00;;;11.40;56.00;11.80;99622.00;;;;345299;28;93828;-87
2021/03/11 00:08:29;;;;;;;13.75;10.07;;;11.50;56.00;11.70;99617.00;;;;344970;28;91982;-88
2021/03/11 00:08:41;;;;;;;13.40;10.63;;;11.50;56.00;11.60;99616.00;;;;342240;28;95737;-89
2021/03/11 00:08:52;;;;;;;14.15;10.65;;;11.50;55.90;11.60;99618.00;;;;343207;28;91718;-89
2021/03/11 00:09:04;;;;;;;14.70;10.80;;;11.40;55.70;11.60;99617.00;;;;343740;28;96100;-86
2021/03/11 00:09:15;;;;;;;15.00;10.70;;;11.40;55.70;11.50;99619.00;;;;345145;28;92000;-86
2021/03/11 00:09:27;;;;;;;13.85;10.80;;;11.40;55.60;11.70;99621.00;;;;342499;28;95749;-87
2021/03/11 00:09:38;;;;;;;14.27;11.07;;;11.40;55.60;11.80;99617.00;;;;346350;28;91992;-87
2021/03/11 00:09:50;;;;;;;13.93;11.32;;;11.50;55.80;11.80;99620.00;;;;343719;28;97432;-86
2021/03/11 00:10:03;;;;;;;13.52;10.52;;;11.50;55.80;11.60;99621.00;;;;343719;28;92079;-88
2021/03/11 00:10:15;;;;;;;13.50;10.38;;;11.50;55.80;11.60;99617.00;;;;341119;28;96851;-86
2021/03/11 00:10:26;;;;;;;12.77;9.98;;;11.50;55.90;11.60;99619.00;;;;348041;27;91925;-86
2021/03/11 00:10:38;;;;;;;12.10;10.05;;;11.50;55.90;11.60;99618.00;;;;343417;28;95732;-87
2021/03/11 00:10:49;;;;;;;11.82;10.32;;;11.50;55.90;11.60;99614.00;;;;346478;28;91328;-87
2021/03/11 00:11:01;;;;;;;11.73;10.13;;;11.50;55.90;11.70;99619.00;;;;345199;28;96366;-87
2021/03/11 00:11:12;;;;;;;11.98;10.10;;;11.50;55.80;11.60;99618.00;;;;345099;28;91994;-88
2021/03/11 00:11:23;;;;;;;11.73;10.07;;;11.50;55.80;11.60;99608.00;;;;343799;28;96789;-87
2021/03/11 00:11:35;;;;;;;12.70;9.95;;;11.50;55.70;11.60;99615.00;;;;343843;28;91134;-87
2021/03/11 00:11:46;;;;;;;14.30;10.60;;;11.50;55.60;11.70;99621.00;;;;343815;28;97807;-88
2021/03/11 00:11:58;;;;;;;14.73;11.68;;;11.50;55.70;11.80;99620.00;;;;343728;28;92109;-87
2021/03/11 00:12:09;;;;;;;15.20;11.88;;;11.50;55.80;11.80;99611.00;;;;342459;28;96365;-87
2021/03/11 00:12:21;;;;;;;14.65;11.35;;;11.50;55.70;11.90;99620.00;;;;345117;28;92072;-87
2021/03/11 00:12:33;;;;;;;14.00;10.73;;;11.50;55.70;11.70;99621.00;;;;342484;28;96114;-88
2021/03/11 00:12:45;;;;;;;12.90;10.68;;;11.50;55.80;11.80;99610.00;;;;342315;28;90513;-86
2021/03/11 00:12:56;;;;;;;12.57;10.73;;;11.50;55.90;11.90;99612.00;;;;342660;28;92613;-86
2021/03/11 00:13:08;;;;;;;11.48;10.27;;;11.50;55.80;11.80;99617.00;;;;345170;28;92008;-86
2021/03/11 00:13:19;;;;;;;11.73;10.30;;;11.50;55.80;11.70;99612.00;;;;345203;28;96446;-87
2021/03/11 00:13:30;;;;;;;12.05;10.25;;;11.50;55.70;11.70;99612.00;;;;346256;28;92111;-87
2021/03/11 00:13:42;;;;;;;14.57;10.68;;;11.50;55.60;11.80;99615.00;;;;343796;28;96667;-89
2021/03/11 00:13:53;;;;;;;15.35;10.77;;;11.60;55.60;11.80;99616.00;;;;340765;28;92494;-87
2021/03/11 00:14:05;;;;;;;13.55;10.27;;;11.50;55.60;11.80;99613.00;;;;342137;28;94440;-87
2021/03/11 00:14:16;;;;;;;12.32;10.27;;;11.50;55.60;11.60;99616.00;;;;345119;28;92076;-87
2021/03/11 00:14:28;;;;;;;12.63;10.77;;;11.50;55.60;11.70;99613.00;;;;345333;28;93956;-87
2021/03/11 00:14:39;;;;;;;13.07;10.60;;;11.50;55.60;11.80;99616.00;;;;342443;28;91179;-87
2021/03/11 00:14:51;;;;;;;12.13;9.98;;;11.50;55.60;11.70;99614.00;;;;341749;28;95729;-86
2021/03/11 00:15:06;;;;;;;11.73;9.60;;;11.50;55.70;11.70;99617.00;;;;345008;28;92172;-87
2021/03/11 00:15:19;;;;;;;11.98;9.98;;;11.50;55.70;11.50;99614.00;;;;343527;28;96865;-87
2021/03/11 00:15:31;;;;;;;12.23;9.98;;;11.50;55.60;11.50;99613.00;;;;343756;28;92300;-86
2021/03/11 00:15:43;;;;;;;11.98;9.95;;;11.40;55.70;11.50;99612.00;;;;343754;28;96667;-87
2021/03/11 00:15:54;;;;;;;11.70;9.82;;;11.40;55.50;11.60;99622.00;;;;346612;28;92007;-87
2021/03/11 00:16:06;;;;;;;12.60;10.48;;;11.40;55.60;11.80;99612.00;;;;347995;27;96862;-88
2021/03/11 00:16:17;;;;;;;13.40;11.07;;;11.50;55.80;11.70;99612.00;;;;345276;28;91935;-88
2021/03/11 00:16:29;;;;;;;14.10;11.40;;;11.40;55.60;11.70;99617.00;;;;343723;28;96953;-89
2021/03/11 00:16:41;;;;;;;15.02;11.48;;;11.50;55.60;11.70;99614.00;;;;345095;28;91284;-87
2021/03/11 00:16:52;;;;;;;14.20;11.00;;;11.50;55.60;11.80;99614.00;;;;343817;28;96521;-87
2021/03/11 00:17:05;;;;;;;13.25;10.52;;;11.50;55.70;11.60;99607.00;;;;345206;28;91086;-87
2021/03/11 00:17:17;;;;;;;12.35;9.93;;;11.50;55.60;11.60;99615.00;;;;345247;28;95669;-88
2021/03/11 00:17:28;;;;;;;12.57;9.55;;;11.50;55.50;11.50;99617.00;;;;342059;28;92129;-86
2021/03/11 00:17:40;;;;;;;13.25;9.77;;;11.50;55.40;11.50;99615.00;;;;346293;28;94115;-88
2021/03/11 00:17:52;;;;;;;13.88;10.43;;;11.50;55.40;11.50;99614.00;;;;347241;27;92223;-87
2021/03/11 00:18:05;;;;;;;15.05;10.98;;;11.40;55.30;11.60;99610.00;;;;345169;28;96590;-87
2021/03/11 00:18:17;;;;;;;14.52;10.57;;;11.40;55.40;11.70;99607.00;;;;343296;28;92114;-87
2021/03/11 00:18:28;;;;;;;13.76;10.04;;;11.40;55.90;11.50;99612.00;;;;345044;28;96121;-86
2021/03/11 00:18:40;;;;;;;13.88;10.20;;;11.40;55.60;11.50;99611.00;;;;343657;28;91348;-87
2021/03/11 00:18:51;;;;;;;13.68;10.18;;;11.40;55.40;11.60;99609.00;;;;346515;28;96048;-87
2021/03/11 00:19:03;;;;;;;12.45;9.95;;;11.40;55.50;11.70;99611.00;;;;343837;28;92030;-88
2021/03/11 00:19:14;;;;;;;11.77;10.10;;;11.40;55.60;11.70;99609.00;;;;345280;28;96704;-87
2021/03/11 00:19:26;;;;;;;13.07;10.57;;;11.40;55.60;11.70;99613.00;;;;343467;28;92055;-87
2021/03/11 00:19:37;;;;;;;14.07;10.13;;;11.40;55.60;11.70;99610.00;;;;342492;28;96192;-87
2021/03/11 00:19:48;;;;;;;13.30;9.77;;;11.40;55.50;11.70;99613.00;;;;345198;28;91989;-87
2021/03/11 00:20:01;;;;;;;11.98;9.45;;;11.40;55.30;11.70;99612.00;;;;345307;28;95576;-87
2021/03/11 00:20:15;;;;;;;11.80;9.80;;;11.40;55.30;11.70;99608.00;;;;342475;28;92006;-87
2021/03/11 00:20:31;;;;;;;12.75;10.18;;;11.50;55.40;11.70;99612.00;;;;345015;28;97534;-88
2021/03/11 00:20:43;;;;;;;13.35;9.90;;;11.50;55.60;11.80;99613.00;;;;343263;28;91814;-90
2021/03/11 00:21:02;;;;;;;13.38;9.73;;;11.50;55.60;11.70;99610.00;;;;345013;28;96172;-86
2021/03/11 00:21:19;;;;;;;12.35;9.82;;;11.50;55.30;11.80;99611.00;;;;345114;28;92012;-88
2021/03/11 00:21:30;;;;;;;12.35;9.90;;;11.50;55.30;11.80;99610.00;;;;343709;28;97636;-87
2021/03/11 00:21:41;;;;;;;12.75;10.27;;;11.50;55.20;11.90;99605.00;;;;345221;28;92006;-86
2021/03/11 00:21:53;;;;;;;13.57;10.35;;;11.50;55.20;11.80;99614.00;;;;344925;28;96877;-88
2021/03/11 00:22:04;;;;;;;14.32;10.65;;;11.50;55.20;11.80;99606.00;;;;343682;28;92098;-87
2021/03/11 00:22:16;;;;;;;13.00;10.25;;;11.50;55.30;11.70;99609.00;;;;343947;28;93803;-87
2021/03/11 00:22:27;;;;;;;13.75;9.75;;;11.50;55.40;11.60;99607.00;;;;342572;28;91952;-86
2021/03/11 00:22:39;;;;;;;14.43;10.07;;;11.50;55.30;11.70;99611.00;;;;346762;28;93120;-86
2021/03/11 00:22:51;;;;;;;13.43;10.45;;;11.50;55.20;11.60;99607.00;;;;341084;28;91429;-86
2021/03/11 00:23:03;;;;;;;12.25;10.70;;;11.50;55.10;11.60;99613.00;;;;342582;28;93496;-88
2021/03/11 00:23:14;;;;;;;12.18;10.25;;;11.50;55.10;11.60;99607.00;;;;343780;28;91929;-87
2021/03/11 00:23:26;;;;;;;13.13;10.00;;;11.50;55.00;11.70;99605.00;;;;345187;28;94535;-87
2021/03/11 00:23:37;;;;;;;13.38;10.18;;;11.50;55.00;11.80;99606.00;;;;342373;28;92117;-87
2021/03/11 00:23:48;;;;;;;13.85;10.68;;;11.50;55.00;11.80;99606.00;;;;344441;28;95353;-87
2021/03/11 00:24:00;;;;;;;11.52;10.27;;;11.50;55.10;11.80;99611.00;;;;342170;28;92609;-87
2021/03/11 00:24:11;;;;;;;12.50;10.57;;;11.50;55.40;11.80;99601.00;;;;343709;28;96524;-87
2021/03/11 00:24:23;;;;;;;12.30;10.50;;;11.50;55.70;11.80;99602.00;;;;343830;28;92344;-87
2021/03/11 00:24:34;;;;;;;12.55;9.93;;;11.50;55.60;11.60;99605.00;;;;341118;28;97086;-88
2021/03/11 00:24:45;;;;;;;13.65;9.70;;;11.50;55.50;11.60;99596.00;;;;344917;28;91540;-86
2021/03/11 00:24:57;;;;;;;13.82;9.85;;;11.50;55.50;11.80;99606.00;;;;342572;28;96581;-87
2021/03/11 00:25:11;;;;;;;12.55;9.77;;;11.50;55.40;11.70;99604.00;;;;342575;28;91888;-86
2021/03/11 00:25:29;;;;;;;11.73;9.82;;;11.50;55.70;11.70;99602.00;;;;342498;28;97285;-87
2021/03/11 00:25:40;;;;;;;12.20;9.75;;;11.40;55.60;11.60;99603.00;;;;342412;28;91128;-87
2021/03/11 00:25:52;;;;;;;13.40;9.70;;;11.50;55.80;11.60;99604.00;;;;339642;28;96585;-88
2021/03/11 00:26:03;;;;;;;12.84;9.72;;;11.40;55.70;11.70;99605.00;;;;342377;28;92329;-87
2021/03/11 00:26:15;;;;;;;12.48;9.55;;;11.40;55.70;11.60;99607.00;;;;345213;28;95353;-87
2021/03/11 00:26:26;;;;;;;11.73;9.57;;;11.40;55.70;11.60;99602.00;;;;343739;28;92075;-86
2021/03/11 00:26:37;;;;;;;11.57;9.48;;;11.40;56.00;11.70;99593.00;;;;343893;28;94217;-86
2021/03/11 00:26:49;;;;;;;11.82;9.63;;;11.40;55.80;11.70;99602.00;;;;344869;28;91281;-87
2021/03/11 00:27:00;;;;;;;11.93;9.55;;;11.40;55.60;11.70;99606.00;;;;344268;28;96711;-87
2021/03/11 00:27:12;;;;;;;13.35;9.88;;;11.40;55.50;11.80;99597.00;;;;343879;28;92025;-87
2021/03/11 00:27:23;;;;;;;12.80;9.65;;;11.40;55.60;11.70;99597.00;;;;345334;28;93890;-86
2021/03/11 00:27:34;;;;;;;14.07;9.90;;;11.40;55.70;11.60;99599.00;;;;346567;28;91100;-87
2021/03/11 00:27:46;;;;;;;13.55;9.90;;;11.50;55.90;11.60;99604.00;;;;345208;28;97422;-86
2021/03/11 00:27:58;;;;;;;11.07;9.70;;;11.40;55.80;11.70;99605.00;;;;346293;28;92462;-92
2021/03/11 00:28:09;;;;;;;10.00;8.70;;;11.40;55.70;11.80;99603.00;;;;343855;28;95571;-86
2021/03/11 00:28:20;;;;;;;10.45;9.13;;;11.50;55.70;11.70;99599.00;;;;343886;28;91888;-87
2021/03/11 00:28:32;;;;;;;12.23;9.98;;;11.50;55.90;11.80;99597.00;;;;343899;28;96691;-87
2021/03/11 00:28:43;;;;;;;12.98;10.52;;;11.50;55.70;11.80;99593.00;;;;340970;28;91288;-86
2021/03/11 00:28:54;;;;;;;12.85;10.18;;;11.50;55.70;11.80;99603.00;;;;343874;28;94983;-87
2021/03/11 00:29:06;;;;;;;11.13;9.15;;;11.50;55.40;11.70;99601.00;;;;345203;28;92244;-86
2021/03/11 00:29:19;;;;;;;11.95;9.63;;;11.50;55.40;11.70;99601.00;;;;344038;28;92975;-87
2021/03/11 00:29:30;;;;;;;12.48;9.93;;;11.50;55.40;11.70;99602.00;;;;346506;28;92066;-87
2021/03/11 00:29:41;;;;;;;13.18;10.35;;;11.50;56.10;11.70;99606.00;;;;344981;28;96854;-87
2021/03/11 00:29:53;;;;;;;12.05;10.02;;;11.40;55.60;11.70;99598.00;;;;347441;27;92173;-87
2021/03/11 00:30:06;;;;;;;13.43;10.43;;;11.50;55.40;11.50;99606.00;;;;345079;28;96507;-87
2021/03/11 00:30:19;;;;;;;14.43;10.43;;;11.40;55.90;11.50;99603.00;;;;342048;28;92106;-87
2021/03/11 00:30:33;;;;;;;13.00;10.13;;;11.40;55.90;11.60;99599.00;;;;344973;28;93931;-87
2021/03/11 00:30:45;;;;;;;12.40;10.38;;;11.40;55.80;11.50;99601.00;;;;345072;28;91374;-86
2021/03/11 00:30:56;;;;;;;12.70;10.52;;;11.40;55.80;11.50;99605.00;;;;343933;28;94019;-86
2021/03/11 00:31:08;;;;;;;13.35;10.43;;;11.40;55.60;11.60;99597.00;;;;343873;28;92056;-86
2021/03/11 00:31:19;;;;;;;13.93;10.30;;;11.40;55.50;11.70;99599.00;;;;343909;28;93809;-87
2021/03/11 00:31:30;;;;;;;13.65;10.52;;;11.40;55.60;11.60;99601.00;;;;343828;28;91961;-86
2021/03/11 00:31:42;;;;;;;12.70;10.68;;;11.40;55.70;11.70;99599.00;;;;343835;28;97377;-86
2021/03/11 00:31:55;;;;;;;13.30;10.77;;;11.40;55.60;11.80;99598.00;;;;340911;28;91947;-86
2021/03/11 00:32:06;;;;;;;12.23;10.23;;;11.40;55.50;11.70;99605.00;;;;346522;28;94807;-86
2021/03/11 00:32:18;;;;;;;11.80;10.27;;;11.40;55.30;11.60;99603.00;;;;343851;28;91194;-86
2021/03/11 00:32:29;;;;;;;12.25;9.82;;;11.40;55.30;11.70;99607.00;;;;344973;28;94624;-87
2021/03/11 00:32:41;;;;;;;14.65;10.10;;;11.40;55.40;11.50;99602.00;;;;344897;28;91383;-86
2021/03/11 00:32:53;;;;;;;15.43;10.15;;;11.40;55.40;11.50;99603.00;;;;347748;27;95290;-86
2021/03/11 00:33:04;;;;;;;14.52;10.18;;;11.40;55.40;11.50;99603.00;;;;344997;28;91835;-87
2021/03/11 00:33:16;;;;;;;11.18;9.40;;;11.40;55.40;11.50;99607.00;;;;346407;28;95810;-86
2021/03/11 00:33:28;;;;;;;11.25;9.25;;;11.40;55.60;11.60;99596.00;;;;345039;28;92290;-87
2021/03/11 00:33:40;;;;;;;11.35;8.75;;;11.40;55.70;11.60;99602.00;;;;343938;28;96348;-86
2021/03/11 00:33:51;;;;;;;12.00;9.43;;;11.40;55.70;11.60;99605.00;;;;342535;28;92029;-86
2021/03/11 00:34:03;;;;;;;12.55;10.02;;;11.40;55.60;11.70;99608.00;;;;343903;28;94525;-87
2021/03/11 00:34:14;;;;;;;12.07;10.13;;;11.40;55.50;11.70;99608.00;;;;342273;28;92472;-86
2021/03/11 00:34:26;;;;;;;11.38;9.73;;;11.40;55.60;11.80;99596.00;;;;343892;28;96324;-86
2021/03/11 00:34:37;;;;;;;12.02;9.77;;;11.40;55.80;11.80;99606.00;;;;342416;28;91199;-86
2021/03/11 00:34:49;;;;;;;12.02;9.48;;;11.40;55.60;11.80;99606.00;;;;345293;28;95952;-86
2021/03/11 00:35:00;;;;;;;12.50;9.75;;;11.40;55.60;11.80;99599.00;;;;345318;28;91129;-86
2021/03/11 00:35:12;;;;;;;12.43;9.23;;;11.50;55.60;11.90;99600.00;;;;346815;28;93005;-86
2021/03/11 00:35:24;;;;;;;11.88;9.35;;;11.50;55.80;11.80;99600.00;;;;343804;28;92003;-86
2021/03/11 00:35:35;;;;;;;11.07;9.30;;;11.50;55.80;11.80;99605.00;;;;345334;28;96723;-86
2021/03/11 00:35:46;;;;;;;11.77;9.65;;;11.50;55.80;11.80;99605.00;;;;343624;28;91209;-87
2021/03/11 00:35:58;;;;;;;11.55;9.40;;;11.50;55.80;11.90;99605.00;;;;346762;28;94317;-87
2021/03/11 00:36:09;;;;;;;12.98;9.52;;;11.50;55.70;11.80;99604.00;;;;343831;28;92039;-87
2021/03/11 00:36:21;;;;;;;14.73;9.95;;;11.50;55.60;11.80;99600.00;;;;343948;28;97447;-87
2021/03/11 00:36:32;;;;;;;16.08;10.30;;;11.50;55.40;11.80;99602.00;;;;343827;28;91217;-89
2021/03/11 00:36:43;;;;;;;13.00;10.13;;;11.50;55.40;11.80;99606.00;;;;342441;28;93590;-87
2021/03/11 00:36:55;;;;;;;11.43;9.52;;;11.50;55.40;11.60;99606.00;;;;341143;28;91924;-86
2021/03/11 00:37:06;;;;;;;11.68;9.88;;;11.50;55.50;11.70;99598.00;;;;345309;28;95807;-87
2021/03/11 00:37:17;;;;;;;12.82;10.25;;;11.50;55.40;11.60;99606.00;;;;342440;28;91871;-87
2021/03/11 00:37:29;;;;;;;12.40;10.05;;;11.50;55.40;11.70;99607.00;;;;343991;28;94274;-86
2021/03/11 00:37:41;;;;;;;11.50;9.35;;;11.50;55.40;11.70;99605.00;;;;343753;28;91921;-87
2021/03/11 00:37:53;;;;;;;12.85;9.52;;;11.50;55.40;11.70;99600.00;;;;346749;28;96995;-86
2021/03/11 00:38:04;;;;;;;18.35;10.95;;;11.50;55.40;11.80;99596.00;;;;343460;28;91313;-88
2021/03/11 00:38:15;;;;;;;17.58;10.55;;;11.50;55.40;11.70;99607.00;;;;343828;28;96566;-87
2021/03/11 00:38:27;;;;;;;14.57;10.13;;;11.50;55.40;11.70;99600.00;;;;343607;28;91666;-86
2021/03/11 00:38:38;;;;;;;13.10;9.77;;;11.50;55.50;11.80;99606.00;;;;342445;28;95724;-86
2021/03/11 00:38:50;;;;;;;13.05;9.75;;;11.60;55.50;11.60;99608.00;;;;343466;28;92288;-87
2021/03/11 00:39:02;;;;;;;11.75;9.55;;;11.50;55.40;11.60;99605.00;;;;343923;28;97027;-86
2021/03/11 00:39:14;;;;;;;12.57;9.65;;;11.50;55.40;11.80;99603.00;;;;343764;28;92098;-87
2021/03/11 00:39:26;;;;;;;13.00;9.93;;;11.50;55.40;11.80;99605.00;;;;342592;28;94344;-87
2021/03/11 00:39:37;;;;;;;11.65;9.10;;;11.50;55.40;11.80;99602.00;;;;342468;28;91048;-86
2021/03/11 00:39:48;;;;;;;11.02;8.93;;;11.50;55.30;11.80;99610.00;;;;342495;28;95616;-87
2021/03/11 00:40:01;;;;;;;11.52;9.45;;;11.60;55.30;11.90;99606.00;;;;345178;28;91001;-86
2021/03/11 00:40:15;;;;;;;11.80;9.90;;;11.60;55.30;11.90;99600.00;;;;343905;28;96829;-86
2021/03/11 00:40:27;;;;;;;16.77;9.88;;;11.60;55.40;11.80;99592.00;;;;345238;28;91207;-86
2021/03/11 00:40:38;;;;;;;16.73;9.60;;;11.60;55.40;11.80;99597.00;;;;343813;28;92298;-86
2021/03/11 00:40:50;;;;;;;13.38;9.27;;;11.60;55.30;11.80;99602.00;;;;344944;28;92110;-90
2021/03/11 00:41:01;;;;;;;10.85;9.10;;;11.60;55.00;11.80;99597.00;;;;348127;27;96661;-86
2021/03/11 00:41:12;;;;;;;12.82;9.88;;;11.60;55.00;11.80;99592.00;;;;345114;28;92012;-87
2021/03/11 00:41:24;;;;;;;13.15;10.43;;;11.60;55.20;11.80;99596.00;;;;343929;28;93496;-87
2021/03/11 00:41:36;;;;;;;12.65;10.30;;;11.60;55.10;11.80;99602.00;;;;341099;28;91941;-87
2021/03/11 00:41:47;;;;;;;11.52;9.73;;;11.60;55.10;11.80;99603.00;;;;344942;28;94766;-87
2021/03/11 00:41:59;;;;;;;10.93;9.25;;;11.60;55.00;11.90;99603.00;;;;345038;28;91989;-86
2021/03/11 00:42:12;;;;;;;12.13;10.02;;;11.60;55.10;11.90;99603.00;;;;343967;28;94385;-86
2021/03/11 00:42:24;;;;;;;13.15;11.00;;;11.60;55.20;11.70;99591.00;;;;342467;28;91529;-86
2021/03/11 00:42:35;;;;;;;13.02;11.20;;;11.60;55.30;11.80;99599.00;;;;348055;27;95714;-87
2021/03/11 00:42:47;;;;;;;13.05;10.45;;;11.60;54.90;11.60;99597.00;;;;346402;28;92053;-86
2021/03/11 00:42:59;;;;;;;13.43;10.15;;;11.50;55.00;11.50;99587.00;;;;348128;27;93641;-87
2021/03/11 00:43:12;;;;;;;13.95;10.55;;;11.50;55.30;11.60;99596.00;;;;345157;28;91991;-86
2021/03/11 00:43:23;;;;;;;13.65;10.40;;;11.50;55.30;11.50;99600.00;;;;343678;28;96724;-87
2021/03/11 00:43:34;;;;;;;12.60;9.77;;;11.50;55.30;11.40;99599.00;;;;343689;28;92327;-87
2021/03/11 00:43:46;;;;;;;12.63;9.55;;;11.40;55.20;11.50;99600.00;;;;342545;28;97400;-87
2021/03/11 00:43:57;;;;;;;13.10;9.50;;;11.40;55.30;11.40;99607.00;;;;341101;28;91983;-86
2021/03/11 00:44:08;;;;;;;13.28;9.64;;;11.40;55.30;11.50;99609.00;;;;341189;28;97579;-86
2021/03/11 00:44:20;;;;;;;13.20;10.00;;;11.40;55.30;11.60;99599.00;;;;343780;28;91309;-86
2021/03/11 00:44:31;;;;;;;14.20;9.90;;;11.40;55.40;11.70;99605.00;;;;341188;28;94848;-85
2021/03/11 00:44:43;;;;;;;13.57;9.63;;;11.40;55.30;11.60;99598.00;;;;346233;28;91388;-86
2021/03/11 00:44:54;;;;;;;12.65;9.52;;;11.40;55.30;11.50;99604.00;;;;346520;28;92700;-87
2021/03/11 00:45:08;;;;;;;11.73;9.68;;;11.40;55.80;11.50;99604.00;;;;345203;28;92169;-86
2021/03/11 00:45:20;;;;;;;12.27;10.02;;;11.40;55.60;11.40;99603.00;;;;346597;28;94400;-86
2021/03/11 00:45:31;;;;;;;11.80;9.75;;;11.40;55.90;11.50;99602.00;;;;345233;28;91144;-86
2021/03/11 00:45:47;;;;;;;11.98;10.05;;;11.40;55.30;11.40;99609.00;;;;346572;28;96672;-87
2021/03/11 00:45:58;;;;;;;12.18;9.95;;;11.40;55.30;11.50;99602.00;;;;342379;28;91896;-86
2021/03/11 00:46:09;;;;;;;12.38;9.98;;;11.40;55.30;11.50;99601.00;;;;345228;28;97092;-86
2021/03/11 00:46:21;;;;;;;12.75;9.82;;;11.40;55.30;11.50;99611.00;;;;343546;28;91532;-86
2021/03/11 00:46:33;;;;;;;11.93;9.55;;;11.30;55.30;11.50;99601.00;;;;346707;28;95779;-87
2021/03/11 00:46:45;;;;;;;11.48;9.80;;;11.30;55.30;11.50;99604.00;;;;345057;28;92034;-87
2021/03/11 00:46:56;;;;;;;12.02;9.50;;;11.30;55.90;11.50;99603.00;;;;347907;27;95538;-86
2021/03/11 00:47:08;;;;;;;12.75;9.32;;;11.30;55.90;11.50;99601.00;;;;345205;28;92003;-87
2021/03/11 00:47:20;;;;;;;12.40;9.30;;;11.30;55.30;11.40;99605.00;;;;345111;28;94079;-86
2021/03/11 00:47:32;;;;;;;13.10;10.18;;;11.30;55.30;11.50;99608.00;;;;345165;28;91969;-87
2021/03/11 00:47:45;;;;;;;13.27;10.27;;;11.30;55.30;11.50;99610.00;;;;346268;28;93030;-86
2021/03/11 00:47:57;;;;;;;14.05;10.05;;;11.30;55.30;11.60;99613.00;;;;347980;27;92363;-87
2021/03/11 00:48:08;;;;;;;14.15;9.88;;;11.30;55.30;11.50;99606.00;;;;345203;28;97135;-86
2021/03/11 00:48:20;;;;;;;14.30;10.13;;;11.30;55.30;11.50;99608.00;;;;343628;28;91349;-87
2021/03/11 00:48:32;;;;;;;14.32;10.48;;;11.30;55.50;11.60;99613.00;;;;345331;28;96584;-87
2021/03/11 00:48:44;;;;;;;15.15;10.15;;;11.30;55.50;11.60;99609.00;;;;345271;28;91514;-86
2021/03/11 00:48:55;;;;;;;14.23;9.30;;;11.30;55.50;11.60;99613.00;;;;346521;28;97405;-86
2021/03/11 00:49:07;;;;;;;14.30;9.57;;;11.30;55.50;11.60;99609.00;;;;347837;27;92250;-86
2021/03/11 00:49:18;;;;;;;13.77;10.00;;;11.30;55.60;11.40;99612.00;;;;347000;28;94165;-86
2021/03/11 00:49:29;;;;;;;14.40;10.85;;;11.30;55.80;11.50;99614.00;;;;345092;28;92340;-87
2021/03/11 00:49:41;;;;;;;14.07;11.05;;;11.30;55.80;11.40;99610.00;;;;346586;28;97060;-86
2021/03/11 00:49:53;;;;;;;13.02;10.48;;;11.30;55.80;11.60;99603.00;;;;347870;27;92075;-88
2021/03/11 00:50:09;;;;;;;12.63;9.88;;;11.30;55.80;11.50;99620.00;;;;347927;27;96778;-87
2021/03/11 00:50:22;;;;;;;13.02;10.18;;;11.30;55.80;11.40;99611.00;;;;347860;27;91307;-86
2021/03/11 00:50:34;;;;;;;13.52;10.50;;;11.20;55.90;11.30;99614.00;;;;346367;28;96127;-87
2021/03/11 00:50:46;;;;;;;13.63;10.48;;;11.20;55.80;11.30;99612.00;;;;346711;27;92172;-88
2021/03/11 00:50:57;;;;;;;13.57;10.40;;;11.20;55.50;11.30;99605.00;;;;343567;28;95719;-87
2021/03/11 00:51:09;;;;;;;11.85;10.30;;;11.20;55.50;11.40;99621.00;;;;346516;28;92253;-86
2021/03/11 00:51:38;;;;;;;12.85;10.40;;;11.20;56.10;11.40;99620.00;;;;341372;28;94758;-87
2021/03/11 00:51:52;;;;;;;11.40;9.38;;;11.20;56.10;11.40;99617.00;;;;345334;28;91157;-88
2021/03/11 00:52:04;;;;;;;10.70;9.02;;;11.20;56.10;11.30;99615.00;;;;342542;28;94683;-87
2021/03/11 00:52:17;;;;;;;11.15;9.65;;;11.20;56.00;11.30;99615.00;;;;343900;28;92137;-86
2021/03/11 00:52:28;;;;;;;12.52;10.18;;;11.20;55.90;11.40;99618.00;;;;343852;28;97389;-91